Terminal Aerodrome Forecast
Issued by NWS

Home | Current Version | Previous Version | Text Only | Print | Product List | Glossary On
Versions: 1 2 3 4 5 6 7 8 9 10 11 12 13
495
FTUS46 KMTR 272337
TAFSJC
TAF
KSJC 272337Z 2800/2824 31013KT P6SM FEW011
     FM280700 32005KT P6SM BKN016
     FM281000 VRB04KT P6SM OVC012
     FM281700 34005KT P6SM FEW020
     FM282000 30011KT P6SM FEW250=

USA.gov is the U.S. government's official web portal to all federal, state and local government web resources and services.